sensor_id;sensor_type;location;lat;lon;timestamp;pressure;altitude;pressure_sealevel;temperature;humidity
75794;BME280;64418;47.536;19.074;2023-05-02T00:00:06;100398.62;;;12.29;54.90
75794;BME280;64418;47.536;19.074;2023-05-02T00:02:32;100387.41;;;12.19;55.27
75794;BME280;64418;47.536;19.074;2023-05-02T00:04:58;100388.81;;;12.28;55.25
75794;BME280;64418;47.536;19.074;2023-05-02T00:07:24;100396.94;;;12.28;55.00
75794;BME280;64418;47.536;19.074;2023-05-02T00:09:51;100391.97;;;12.25;55.33
75794;BME280;64418;47.536;19.074;2023-05-02T00:12:16;100388.66;;;12.23;55.40
75794;BME280;64418;47.536;19.074;2023-05-02T00:14:42;100375.75;;;12.12;55.46
75794;BME280;64418;47.536;19.074;2023-05-02T00:17:08;100396.16;;;12.21;55.63
75794;BME280;64418;47.536;19.074;2023-05-02T00:19:40;100395.72;;;12.24;55.55
75794;BME280;64418;47.536;19.074;2023-05-02T00:22:06;100395.31;;;12.27;55.54
75794;BME280;64418;47.536;19.074;2023-05-02T00:24:31;100390.66;;;12.34;55.19
75794;BME280;64418;47.536;19.074;2023-05-02T00:26:59;100390.69;;;12.28;55.33
75794;BME280;64418;47.536;19.074;2023-05-02T00:29:25;100394.00;;;12.36;55.00
75794;BME280;64418;47.536;19.074;2023-05-02T00:31:51;100394.38;;;12.40;54.88
75794;BME280;64418;47.536;19.074;2023-05-02T00:34:17;100390.81;;;12.46;54.46
75794;BME280;64418;47.536;19.074;2023-05-02T00:36:43;100398.97;;;12.46;54.16
75794;BME280;64418;47.536;19.074;2023-05-02T00:39:09;100395.22;;;12.40;54.22
75794;BME280;64418;47.536;19.074;2023-05-02T00:41:34;100389.59;;;12.35;54.44
75794;BME280;64418;47.536;19.074;2023-05-02T00:44:02;100390.19;;;12.44;54.18
75794;BME280;64418;47.536;19.074;2023-05-02T00:46:27;100391.47;;;12.41;54.37
75794;BME280;64418;47.536;19.074;2023-05-02T00:48:53;100389.41;;;12.37;54.28
75794;BME280;64418;47.536;19.074;2023-05-02T00:51:19;100386.19;;;12.46;54.19
75794;BME280;64418;47.536;19.074;2023-05-02T00:53:45;100393.13;;;12.42;54.18
75794;BME280;64418;47.536;19.074;2023-05-02T00:56:11;100397.94;;;12.40;54.25
75794;BME280;64418;47.536;19.074;2023-05-02T00:58:38;100404.81;;;12.43;54.15
75794;BME280;64418;47.536;19.074;2023-05-02T01:01:15;100396.44;;;12.44;54.14
75794;BME280;64418;47.536;19.074;2023-05-02T01:03:54;100396.00;;;12.47;53.62
75794;BME280;64418;47.536;19.074;2023-05-02T01:06:35;100393.09;;;12.49;53.52
75794;BME280;64418;47.536;19.074;2023-05-02T01:09:08;100397.03;;;12.53;53.03
75794;BME280;64418;47.536;19.074;2023-05-02T01:11:43;100397.88;;;12.53;52.84
75794;BME280;64418;47.536;19.074;2023-05-02T01:14:13;100396.34;;;12.57;52.79
75794;BME280;64418;47.536;19.074;2023-05-02T01:16:42;100391.38;;;12.54;52.59
75794;BME280;64418;47.536;19.074;2023-05-02T01:19:15;100395.75;;;12.55;52.83
75794;BME280;64418;47.536;19.074;2023-05-02T01:21:44;100402.03;;;12.56;52.71
75794;BME280;64418;47.536;19.074;2023-05-02T01:24:14;100388.44;;;12.56;52.64
75794;BME280;64418;47.536;19.074;2023-05-02T01:26:50;100389.28;;;12.57;52.57
75794;BME280;64418;47.536;19.074;2023-05-02T01:29:22;100397.63;;;12.55;52.64
75794;BME280;64418;47.536;19.074;2023-05-02T01:31:49;100388.03;;;12.52;52.74
75794;BME280;64418;47.536;19.074;2023-05-02T01:34:17;100398.91;;;12.52;52.93
75794;BME280;64418;47.536;19.074;2023-05-02T01:36:46;100396.00;;;12.47;53.24
75794;BME280;64418;47.536;19.074;2023-05-02T01:39:17;100381.38;;;12.48;53.40
75794;BME280;64418;47.536;19.074;2023-05-02T01:41:44;100387.22;;;12.52;53.37
75794;BME280;64418;47.536;19.074;2023-05-02T01:44:12;100387.50;;;12.37;53.76
75794;BME280;64418;47.536;19.074;2023-05-02T01:46:41;100386.94;;;12.29;53.95
75794;BME280;64418;47.536;19.074;2023-05-02T01:49:07;100382.13;;;12.24;53.92
75794;BME280;64418;47.536;19.074;2023-05-02T01:51:35;100381.09;;;12.25;53.82
75794;BME280;64418;47.536;19.074;2023-05-02T01:54:04;100383.63;;;12.20;53.66
75794;BME280;64418;47.536;19.074;2023-05-02T01:56:34;100374.44;;;12.21;53.70
75794;BME280;64418;47.536;19.074;2023-05-02T01:59:01;100385.09;;;12.16;53.71
75794;BME280;64418;47.536;19.074;2023-05-02T02:01:29;100373.22;;;12.11;53.92
75794;BME280;64418;47.536;19.074;2023-05-02T02:03:57;100371.59;;;12.03;54.26
75794;BME280;64418;47.536;19.074;2023-05-02T02:06:25;100371.41;;;11.98;54.39
75794;BME280;64418;47.536;19.074;2023-05-02T02:08:51;100377.28;;;11.95;54.63
75794;BME280;64418;47.536;19.074;2023-05-02T02:11:23;100373.31;;;11.91;54.64
75794;BME280;64418;47.536;19.074;2023-05-02T02:13:53;100376.66;;;11.86;55.02
75794;BME280;64418;47.536;19.074;2023-05-02T02:16:24;100369.59;;;11.79;55.30
75794;BME280;64418;47.536;19.074;2023-05-02T02:18:53;100373.78;;;11.75;55.70
75794;BME280;64418;47.536;19.074;2023-05-02T02:21:23;100369.19;;;11.69;56.04
75794;BME280;64418;47.536;19.074;2023-05-02T02:23:50;100369.00;;;11.64;56.29
75794;BME280;64418;47.536;19.074;2023-05-02T02:26:19;100363.41;;;11.58;56.60
75794;BME280;64418;47.536;19.074;2023-05-02T02:28:47;100364.22;;;11.52;57.30
75794;BME280;64418;47.536;19.074;2023-05-02T02:31:12;100365.09;;;11.46;57.58
75794;BME280;64418;47.536;19.074;2023-05-02T02:33:39;100367.00;;;11.39;57.68
75794;BME280;64418;47.536;19.074;2023-05-02T02:36:09;100364.06;;;11.34;58.70
75794;BME280;64418;47.536;19.074;2023-05-02T02:38:44;100359.28;;;11.30;59.43
75794;BME280;64418;47.536;19.074;2023-05-02T02:41:15;100358.25;;;11.24;60.05
75794;BME280;64418;47.536;19.074;2023-05-02T02:43:52;100361.41;;;11.21;60.43
75794;BME280;64418;47.536;19.074;2023-05-02T02:46:29;100362.63;;;11.19;60.51
75794;BME280;64418;47.536;19.074;2023-05-02T02:49:12;100357.22;;;11.19;62.29
75794;BME280;64418;47.536;19.074;2023-05-02T02:51:44;100361.78;;;11.18;61.63
75794;BME280;64418;47.536;19.074;2023-05-02T02:54:14;100361.19;;;11.16;62.38
75794;BME280;64418;47.536;19.074;2023-05-02T02:56:46;100366.19;;;11.12;62.74
75794;BME280;64418;47.536;19.074;2023-05-02T02:59:16;100372.25;;;11.08;63.83
75794;BME280;64418;47.536;19.074;2023-05-02T03:01:47;100367.25;;;11.05;63.79
75794;BME280;64418;47.536;19.074;2023-05-02T03:04:18;100370.16;;;11.03;63.75
75794;BME280;64418;47.536;19.074;2023-05-02T03:06:45;100368.91;;;10.99;63.73
75794;BME280;64418;47.536;19.074;2023-05-02T03:09:15;100369.56;;;10.95;64.12
75794;BME280;64418;47.536;19.074;2023-05-02T03:11:41;100364.94;;;10.89;64.11
75794;BME280;64418;47.536;19.074;2023-05-02T03:14:07;100373.94;;;10.83;64.22
75794;BME280;64418;47.536;19.074;2023-05-02T03:16:34;100376.22;;;10.79;64.35
75794;BME280;64418;47.536;19.074;2023-05-02T03:19:01;100374.12;;;10.75;64.42
75794;BME280;64418;47.536;19.074;2023-05-02T03:21:27;100375.59;;;10.71;64.70
75794;BME280;64418;47.536;19.074;2023-05-02T03:23:53;100375.78;;;10.69;64.38
75794;BME280;64418;47.536;19.074;2023-05-02T03:26:21;100388.06;;;10.65;64.73
75794;BME280;64418;47.536;19.074;2023-05-02T03:28:47;100382.87;;;10.63;64.96
75794;BME280;64418;47.536;19.074;2023-05-02T03:31:13;100380.16;;;10.63;65.23
75794;BME280;64418;47.536;19.074;2023-05-02T03:33:39;100390.56;;;10.60;65.05
75794;BME280;64418;47.536;19.074;2023-05-02T03:36:05;100393.06;;;10.61;64.98
75794;BME280;64418;47.536;19.074;2023-05-02T03:38:31;100387.25;;;10.65;64.96
75794;BME280;64418;47.536;19.074;2023-05-02T03:40:57;100393.91;;;10.62;65.01
75794;BME280;64418;47.536;19.074;2023-05-02T03:43:24;100388.06;;;10.65;65.39
75794;BME280;64418;47.536;19.074;2023-05-02T03:45:53;100398.91;;;10.65;65.29
75794;BME280;64418;47.536;19.074;2023-05-02T03:48:19;100401.41;;;10.67;65.45
75794;BME280;64418;47.536;19.074;2023-05-02T03:50:45;100396.41;;;10.63;65.64
75794;BME280;64418;47.536;19.074;2023-05-02T03:53:11;100399.75;;;10.66;65.91
75794;BME280;64418;47.536;19.074;2023-05-02T03:55:38;100402.44;;;10.66;65.88
75794;BME280;64418;47.536;19.074;2023-05-02T03:58:04;100394.97;;;10.68;65.94
75794;BME280;64418;47.536;19.074;2023-05-02T04:00:31;100398.09;;;10.65;66.16
75794;BME280;64418;47.536;19.074;2023-05-02T04:02:59;100408.28;;;10.69;66.11
75794;BME280;64418;47.536;19.074;2023-05-02T04:05:25;100413.09;;;10.74;66.05
75794;BME280;64418;47.536;19.074;2023-05-02T04:07:51;100411.03;;;10.76;65.98
75794;BME280;64418;47.536;19.074;2023-05-02T04:10:16;100417.72;;;10.80;65.68
75794;BME280;64418;47.536;19.074;2023-05-02T04:12:42;100409.16;;;10.83;65.81
75794;BME280;64418;47.536;19.074;2023-05-02T04:15:09;100407.69;;;10.87;65.48
75794;BME280;64418;47.536;19.074;2023-05-02T04:17:36;100411.03;;;10.89;65.17
75794;BME280;64418;47.536;19.074;2023-05-02T04:20:02;100409.16;;;10.96;64.67
75794;BME280;64418;47.536;19.074;2023-05-02T04:22:28;100415.81;;;11.00;64.31
75794;BME280;64418;47.536;19.074;2023-05-02T04:24:54;100415.63;;;11.08;64.09
75794;BME280;64418;47.536;19.074;2023-05-02T04:27:20;100417.28;;;11.16;63.60
75794;BME280;64418;47.536;19.074;2023-05-02T04:29:47;100417.28;;;11.22;63.25
75794;BME280;64418;47.536;19.074;2023-05-02T04:32:13;100416.03;;;11.31;62.85
75794;BME280;64418;47.536;19.074;2023-05-02T04:34:41;100422.91;;;11.40;62.57
75794;BME280;64418;47.536;19.074;2023-05-02T04:37:06;100424.75;;;11.53;62.04
75794;BME280;64418;47.536;19.074;2023-05-02T04:39:32;100424.72;;;11.59;61.65
75794;BME280;64418;47.536;19.074;2023-05-02T04:41:59;100423.91;;;11.72;61.26
75794;BME280;64418;47.536;19.074;2023-05-02T04:44:25;100432.22;;;11.84;60.97
75794;BME280;64418;47.536;19.074;2023-05-02T04:46:50;100433.69;;;11.93;60.64
75794;BME280;64418;47.536;19.074;2023-05-02T04:49:16;100435.78;;;11.84;61.01
75794;BME280;64418;47.536;19.074;2023-05-02T04:51:44;100428.03;;;11.94;60.73
75794;BME280;64418;47.536;19.074;2023-05-02T04:54:10;100431.13;;;11.98;60.60
75794;BME280;64418;47.536;19.074;2023-05-02T04:56:36;100439.50;;;11.96;60.60
75794;BME280;64418;47.536;19.074;2023-05-02T04:59:02;100443.44;;;12.07;60.35
75794;BME280;64418;47.536;19.074;2023-05-02T05:01:28;100440.50;;;12.15;60.10
75794;BME280;64418;47.536;19.074;2023-05-02T05:03:54;100445.84;;;12.28;59.70
75794;BME280;64418;47.536;19.074;2023-05-02T05:06:20;100437.69;;;12.28;59.68
75794;BME280;64418;47.536;19.074;2023-05-02T05:08:47;100437.00;;;12.46;59.01
75794;BME280;64418;47.536;19.074;2023-05-02T05:11:13;100440.03;;;12.63;58.35
75794;BME280;64418;47.536;19.074;2023-05-02T05:13:39;100439.34;;;12.74;57.89
75794;BME280;64418;47.536;19.074;2023-05-02T05:16:05;100441.34;;;12.85;57.33
75794;BME280;64418;47.536;19.074;2023-05-02T05:18:31;100440.31;;;12.86;57.04
75794;BME280;64418;47.536;19.074;2023-05-02T05:20:57;100435.47;;;12.88;56.72
75794;BME280;64418;47.536;19.074;2023-05-02T05:23:23;100448.19;;;12.94;56.53
75794;BME280;64418;47.536;19.074;2023-05-02T05:25:50;100451.09;;;12.99;56.54
75794;BME280;64418;47.536;19.074;2023-05-02T05:28:16;100445.50;;;13.19;56.12
75794;BME280;64418;47.536;19.074;2023-05-02T05:30:41;100455.28;;;13.26;55.94
75794;BME280;64418;47.536;19.074;2023-05-02T05:33:07;100447.63;;;13.41;55.57
75794;BME280;64418;47.536;19.074;2023-05-02T05:35:33;100453.84;;;13.48;55.37
75794;BME280;64418;47.536;19.074;2023-05-02T05:37:59;100450.37;;;13.60;55.05
75794;BME280;64418;47.536;19.074;2023-05-02T05:40:25;100452.38;;;13.71;54.90
75794;BME280;64418;47.536;19.074;2023-05-02T05:42:51;100460.25;;;13.79;54.89
75794;BME280;64418;47.536;19.074;2023-05-02T05:45:17;100454.66;;;13.92;54.65
75794;BME280;64418;47.536;19.074;2023-05-02T05:47:43;100464.44;;;13.99;54.65
75794;BME280;64418;47.536;19.074;2023-05-02T05:50:09;100468.06;;;14.12;54.37
75794;BME280;64418;47.536;19.074;2023-05-02T05:52:35;100472.38;;;14.19;54.16
75794;BME280;64418;47.536;19.074;2023-05-02T05:55:00;100469.34;;;14.27;54.08
75794;BME280;64418;47.536;19.074;2023-05-02T05:57:27;100472.84;;;14.34;53.95
75794;BME280;64418;47.536;19.074;2023-05-02T05:59:55;100476.47;;;14.46;53.81
75794;BME280;64418;47.536;19.074;2023-05-02T06:02:21;100476.44;;;14.65;53.49
75794;BME280;64418;47.536;19.074;2023-05-02T06:04:47;100482.31;;;14.80;53.12
75794;BME280;64418;47.536;19.074;2023-05-02T06:07:14;100479.38;;;14.93;52.90
75794;BME280;64418;47.536;19.074;2023-05-02T06:09:40;100483.00;;;15.05;52.68
75794;BME280;64418;47.536;19.074;2023-05-02T06:12:05;100484.91;;;15.16;52.43
75794;BME280;64418;47.536;19.074;2023-05-02T06:14:31;100483.88;;;15.29;52.00
75794;BME280;64418;47.536;19.074;2023-05-02T06:16:59;100485.81;;;15.40;51.80
75794;BME280;64418;47.536;19.074;2023-05-02T06:19:25;100483.22;;;15.57;51.48
75794;BME280;64418;47.536;19.074;2023-05-02T06:21:50;100478.50;;;15.52;51.55
75794;BME280;64418;47.536;19.074;2023-05-02T06:24:16;100485.84;;;15.75;51.29
75794;BME280;64418;47.536;19.074;2023-05-02T06:26:42;100481.19;;;15.87;50.90
75794;BME280;64418;47.536;19.074;2023-05-02T06:29:08;100486.44;;;16.00;50.72
75794;BME280;64418;47.536;19.074;2023-05-02T06:31:34;100473.47;;;16.07;50.50
75794;BME280;64418;47.536;19.074;2023-05-02T06:34:01;100480.00;;;16.06;50.52
75794;BME280;64418;47.536;19.074;2023-05-02T06:36:27;100483.06;;;16.21;50.08
75794;BME280;64418;47.536;19.074;2023-05-02T06:38:52;100481.72;;;16.35;49.85
75794;BME280;64418;47.536;19.074;2023-05-02T06:41:18;100481.56;;;16.54;49.72
75794;BME280;64418;47.536;19.074;2023-05-02T06:43:44;100474.81;;;16.56;49.63
75794;BME280;64418;47.536;19.074;2023-05-02T06:46:10;100486.53;;;16.68;48.47
75794;BME280;64418;47.536;19.074;2023-05-02T06:48:36;100482.88;;;16.91;48.12
75794;BME280;64418;47.536;19.074;2023-05-02T06:51:03;100484.13;;;17.62;46.52
75794;BME280;64418;47.536;19.074;2023-05-02T06:53:29;100485.09;;;17.89;45.68
75794;BME280;64418;47.536;19.074;2023-05-02T06:55:55;100470.66;;;18.54;43.96
75794;BME280;64418;47.536;19.074;2023-05-02T06:58:21;100490.69;;;19.61;41.82
75794;BME280;64418;47.536;19.074;2023-05-02T07:00:47;100485.97;;;19.57;41.62
75794;BME280;64418;47.536;19.074;2023-05-02T07:03:12;100484.31;;;20.35;40.26
75794;BME280;64418;47.536;19.074;2023-05-02T07:05:38;100482.13;;;19.58;41.62
75794;BME280;64418;47.536;19.074;2023-05-02T07:08:06;100490.66;;;19.30;42.62
75794;BME280;64418;47.536;19.074;2023-05-02T07:10:32;100483.91;;;20.21;40.61
75794;BME280;64418;47.536;19.074;2023-05-02T07:12:58;100484.47;;;19.76;41.64
75794;BME280;64418;47.536;19.074;2023-05-02T07:15:24;100489.97;;;19.76;40.71
75794;BME280;64418;47.536;19.074;2023-05-02T07:17:50;100488.37;;;20.27;40.11
75794;BME280;64418;47.536;19.074;2023-05-02T07:20:16;100486.69;;;20.93;39.00
75794;BME280;64418;47.536;19.074;2023-05-02T07:22:42;100481.75;;;20.90;39.40
75794;BME280;64418;47.536;19.074;2023-05-02T07:25:09;100484.53;;;20.95;38.63
75794;BME280;64418;47.536;19.074;2023-05-02T07:27:35;100483.28;;;20.56;39.31
75794;BME280;64418;47.536;19.074;2023-05-02T07:30:01;100470.16;;;20.83;38.96
75794;BME280;64418;47.536;19.074;2023-05-02T07:32:27;100476.75;;;20.82;39.24
75794;BME280;64418;47.536;19.074;2023-05-02T07:34:53;100481.44;;;20.19;39.65
75794;BME280;64418;47.536;19.074;2023-05-02T07:37:19;100475.62;;;20.11;39.71
75794;BME280;64418;47.536;19.074;2023-05-02T07:39:45;100482.75;;;20.59;39.04
75794;BME280;64418;47.536;19.074;2023-05-02T07:42:12;100485.50;;;20.54;38.67
75794;BME280;64418;47.536;19.074;2023-05-02T07:44:37;100487.59;;;20.32;39.41
75794;BME280;64418;47.536;19.074;2023-05-02T07:47:03;100492.44;;;20.72;38.94
75794;BME280;64418;47.536;19.074;2023-05-02T07:49:29;100483.31;;;20.66;38.75
75794;BME280;64418;47.536;19.074;2023-05-02T07:51:57;100491.63;;;20.81;38.45
75794;BME280;64418;47.536;19.074;2023-05-02T07:54:23;100490.00;;;20.80;38.68
75794;BME280;64418;47.536;19.074;2023-05-02T07:56:49;100496.09;;;21.02;38.53
75794;BME280;64418;47.536;19.074;2023-05-02T07:59:16;100490.31;;;21.04;38.67
75794;BME280;64418;47.536;19.074;2023-05-02T08:01:42;100485.41;;;21.11;38.37
75794;BME280;64418;47.536;19.074;2023-05-02T08:04:08;100495.06;;;21.19;37.96
75794;BME280;64418;47.536;19.074;2023-05-02T08:06:34;100492.78;;;20.95;38.29
75794;BME280;64418;47.536;19.074;2023-05-02T08:09:00;100495.63;;;21.41;37.46
75794;BME280;64418;47.536;19.074;2023-05-02T08:11:26;100490.66;;;21.38;36.92
75794;BME280;64418;47.536;19.074;2023-05-02T08:13:51;100492.28;;;21.84;36.06
75794;BME280;64418;47.536;19.074;2023-05-02T08:16:19;100500.97;;;22.62;35.07
75794;BME280;64418;47.536;19.074;2023-05-02T08:18:45;100495.47;;;22.52;35.38
75794;BME280;64418;47.536;19.074;2023-05-02T08:21:11;100498.78;;;23.08;34.50
75794;BME280;64418;47.536;19.074;2023-05-02T08:23:37;100502.28;;;23.24;33.85
75794;BME280;64418;47.536;19.074;2023-05-02T08:26:04;100503.84;;;22.96;33.98
75794;BME280;64418;47.536;19.074;2023-05-02T08:28:30;100497.13;;;22.53;34.74
75794;BME280;64418;47.536;19.074;2023-05-02T08:30:56;100508.53;;;23.44;33.50
75794;BME280;64418;47.536;19.074;2023-05-02T08:33:24;100503.84;;;24.03;32.25
75794;BME280;64418;47.536;19.074;2023-05-02T08:35:50;100501.34;;;23.77;32.84
75794;BME280;64418;47.536;19.074;2023-05-02T08:38:16;100501.63;;;24.05;32.03
75794;BME280;64418;47.536;19.074;2023-05-02T08:40:42;100499.09;;;23.45;33.46
75794;BME280;64418;47.536;19.074;2023-05-02T08:43:09;100492.25;;;24.01;32.80
75794;BME280;64418;47.536;19.074;2023-05-02T08:45:39;100484.37;;;24.13;32.01
75794;BME280;64418;47.536;19.074;2023-05-02T08:48:06;100495.03;;;24.01;32.09
75794;BME280;64418;47.536;19.074;2023-05-02T08:50:36;100494.34;;;23.56;33.01
75794;BME280;64418;47.536;19.074;2023-05-02T08:53:03;100484.84;;;23.67;32.66
75794;BME280;64418;47.536;19.074;2023-05-02T08:55:29;100490.25;;;23.77;32.47
75794;BME280;64418;47.536;19.074;2023-05-02T08:57:56;100477.59;;;22.93;33.56
75794;BME280;64418;47.536;19.074;2023-05-02T09:00:23;100485.28;;;23.01;33.67
75794;BME280;64418;47.536;19.074;2023-05-02T09:02:58;100484.09;;;22.69;34.27
75794;BME280;64418;47.536;19.074;2023-05-02T09:05:30;100487.66;;;23.57;33.06
75794;BME280;64418;47.536;19.074;2023-05-02T09:07:59;100482.69;;;23.59;33.05
75794;BME280;64418;47.536;19.074;2023-05-02T09:10:27;100481.88;;;24.16;32.34
75794;BME280;64418;47.536;19.074;2023-05-02T09:12:53;100471.81;;;24.91;31.23
75794;BME280;64418;47.536;19.074;2023-05-02T09:15:19;100476.78;;;25.46;30.45
75794;BME280;64418;47.536;19.074;2023-05-02T09:17:46;100473.22;;;25.26;30.35
75794;BME280;64418;47.536;19.074;2023-05-02T09:20:14;100472.72;;;24.82;30.86
75794;BME280;64418;47.536;19.074;2023-05-02T09:22:47;100468.50;;;24.47;31.27
75794;BME280;64418;47.536;19.074;2023-05-02T09:25:15;100469.25;;;24.53;31.22
75794;BME280;64418;47.536;19.074;2023-05-02T09:27:51;100458.19;;;24.71;30.73
75794;BME280;64418;47.536;19.074;2023-05-02T09:30:19;100458.53;;;25.26;29.68
75794;BME280;64418;47.536;19.074;2023-05-02T09:32:45;100471.41;;;25.17;29.95
75794;BME280;64418;47.536;19.074;2023-05-02T09:35:11;100463.16;;;25.95;29.06
75794;BME280;64418;47.536;19.074;2023-05-02T09:37:37;100468.34;;;26.15;28.45
75794;BME280;64418;47.536;19.074;2023-05-02T09:40:08;100471.53;;;26.63;27.59
75794;BME280;64418;47.536;19.074;2023-05-02T09:42:35;100471.31;;;26.05;27.77
75794;BME280;64418;47.536;19.074;2023-05-02T09:45:01;100463.06;;;25.54;28.69
75794;BME280;64418;47.536;19.074;2023-05-02T09:47:27;100470.06;;;25.52;28.89
75794;BME280;64418;47.536;19.074;2023-05-02T09:49:53;100473.97;;;25.97;28.33
75794;BME280;64418;47.536;19.074;2023-05-02T09:52:20;100470.97;;;25.79;28.48
75794;BME280;64418;47.536;19.074;2023-05-02T09:54:45;100467.00;;;26.13;27.78
75794;BME280;64418;47.536;19.074;2023-05-02T09:57:11;100463.97;;;27.05;27.00
75794;BME280;64418;47.536;19.074;2023-05-02T09:59:39;100457.78;;;27.97;26.22
75794;BME280;64418;47.536;19.074;2023-05-02T10:02:06;100452.38;;;29.05;24.94
75794;BME280;64418;47.536;19.074;2023-05-02T10:04:33;100461.44;;;29.53;23.66
75794;BME280;64418;47.536;19.074;2023-05-02T10:07:00;100455.06;;;30.08;23.00
75794;BME280;64418;47.536;19.074;2023-05-02T10:09:28;100447.31;;;29.41;23.76
75794;BME280;64418;47.536;19.074;2023-05-02T10:11:55;100454.84;;;29.15;24.25
75794;BME280;64418;47.536;19.074;2023-05-02T10:14:22;100453.19;;;28.80;24.38
75794;BME280;64418;47.536;19.074;2023-05-02T10:16:58;100452.28;;;30.37;22.82
75794;BME280;64418;47.536;19.074;2023-05-02T10:19:29;100448.31;;;30.09;23.19
75794;BME280;64418;47.536;19.074;2023-05-02T10:21:55;100440.37;;;29.64;23.68
75794;BME280;64418;47.536;19.074;2023-05-02T10:24:23;100447.63;;;29.23;23.85
75794;BME280;64418;47.536;19.074;2023-05-02T10:26:51;100435.69;;;30.70;22.19
75794;BME280;64418;47.536;19.074;2023-05-02T10:29:17;100452.75;;;30.48;22.60
75794;BME280;64418;47.536;19.074;2023-05-02T10:31:44;100435.22;;;29.84;22.53
75794;BME280;64418;47.536;19.074;2023-05-02T10:34:11;100452.16;;;29.79;22.53
75794;BME280;64418;47.536;19.074;2023-05-02T10:36:37;100447.75;;;30.83;21.39
75794;BME280;64418;47.536;19.074;2023-05-02T10:39:03;100443.03;;;29.35;22.94
75794;BME280;64418;47.536;19.074;2023-05-02T10:41:30;100447.81;;;30.07;22.53
75794;BME280;64418;47.536;19.074;2023-05-02T10:43:58;100441.56;;;31.39;21.18
75794;BME280;64418;47.536;19.074;2023-05-02T10:46:31;100448.97;;;31.89;20.52
75794;BME280;64418;47.536;19.074;2023-05-02T10:49:02;100445.72;;;29.95;22.71
75794;BME280;64418;47.536;19.074;2023-05-02T10:51:31;100436.94;;;28.90;23.92
75794;BME280;64418;47.536;19.074;2023-05-02T10:54:20;100440.28;;;28.44;24.63
75794;BME280;64418;47.536;19.074;2023-05-02T10:57:03;100436.78;;;29.55;23.53
75794;BME280;64418;47.536;19.074;2023-05-02T10:59:30;100449.06;;;30.27;23.04
75794;BME280;64418;47.536;19.074;2023-05-02T11:01:57;100436.66;;;31.36;21.59
75794;BME280;64418;47.536;19.074;2023-05-02T11:04:23;100432.78;;;31.94;21.22
75794;BME280;64418;47.536;19.074;2023-05-02T11:07:18;100433.16;;;33.30;19.70
75794;BME280;64418;47.536;19.074;2023-05-02T11:09:44;100434.75;;;31.28;21.61
75794;BME280;64418;47.536;19.074;2023-05-02T11:12:11;100433.31;;;30.81;22.41
75794;BME280;64418;47.536;19.074;2023-05-02T11:14:56;100430.28;;;31.15;21.96
75794;BME280;64418;47.536;19.074;2023-05-02T11:17:22;100427.84;;;33.40;19.93
75794;BME280;64418;47.536;19.074;2023-05-02T11:25:43;100425.38;;;35.31;18.06
75794;BME280;64418;47.536;19.074;2023-05-02T11:28:42;100422.63;;;32.75;20.41
75794;BME280;64418;47.536;19.074;2023-05-02T11:31:51;100421.94;;;30.56;22.55
75794;BME280;64418;47.536;19.074;2023-05-02T11:33:56;100419.87;;;30.07;23.28
75794;BME280;64418;47.536;19.074;2023-05-02T11:36:27;100413.81;;;30.34;23.09
75794;BME280;64418;47.536;19.074;2023-05-02T11:38:54;100407.91;;;31.27;21.95
75794;BME280;64418;47.536;19.074;2023-05-02T11:41:20;100402.06;;;30.20;23.13
75794;BME280;64418;47.536;19.074;2023-05-02T11:43:46;100404.62;;;31.25;22.18
75794;BME280;64418;47.536;19.074;2023-05-02T11:46:13;100402.63;;;34.66;18.89
75794;BME280;64418;47.536;19.074;2023-05-02T11:48:41;100411.94;;;35.85;17.66
75794;BME280;64418;47.536;19.074;2023-05-02T11:51:07;100407.38;;;34.15;19.07
75794;BME280;64418;47.536;19.074;2023-05-02T11:53:39;100401.91;;;31.17;22.01
75794;BME280;64418;47.536;19.074;2023-05-02T11:56:07;100405.12;;;32.66;20.53
75794;BME280;64418;47.536;19.074;2023-05-02T11:58:33;100386.50;;;34.82;18.29
75794;BME280;64418;47.536;19.074;2023-05-02T12:01:10;100388.94;;;30.12;22.70
75794;BME280;64418;47.536;19.074;2023-05-02T12:03:36;100387.81;;;28.46;25.15
75794;BME280;64418;47.536;19.074;2023-05-02T12:06:16;100383.16;;;27.54;26.07
75794;BME280;64418;47.536;19.074;2023-05-02T12:08:46;100383.47;;;28.88;24.85
75794;BME280;64418;47.536;19.074;2023-05-02T12:11:17;100380.75;;;30.07;23.68
75794;BME280;64418;47.536;19.074;2023-05-02T12:13:47;100375.38;;;30.02;24.29
75794;BME280;64418;47.536;19.074;2023-05-02T12:16:13;100379.91;;;30.44;23.65
75794;BME280;64418;47.536;19.074;2023-05-02T12:18:40;100378.09;;;30.69;22.86
75794;BME280;64418;47.536;19.074;2023-05-02T12:21:06;100376.78;;;30.37;23.14
75794;BME280;64418;47.536;19.074;2023-05-02T12:23:32;100372.59;;;29.21;24.41
75794;BME280;64418;47.536;19.074;2023-05-02T12:25:59;100378.38;;;28.82;24.65
75794;BME280;64418;47.536;19.074;2023-05-02T12:28:26;100370.94;;;28.51;24.87
75794;BME280;64418;47.536;19.074;2023-05-02T12:30:52;100375.22;;;28.75;24.57
75794;BME280;64418;47.536;19.074;2023-05-02T12:33:18;100385.41;;;27.74;25.82
75794;BME280;64418;47.536;19.074;2023-05-02T12:35:51;100376.88;;;28.10;24.89
75794;BME280;64418;47.536;19.074;2023-05-02T12:38:38;100369.75;;;27.87;24.73
75794;BME280;64418;47.536;19.074;2023-05-02T12:41:05;100372.50;;;27.48;25.13
75794;BME280;64418;47.536;19.074;2023-05-02T12:43:45;100362.56;;;27.55;25.08
75794;BME280;64418;47.536;19.074;2023-05-02T12:46:11;100356.50;;;27.93;24.24
75794;BME280;64418;47.536;19.074;2023-05-02T12:48:37;100351.69;;;28.24;23.81